Time;durP1;ratioP1;P1;durP2;ratioP2;P2;SDS_P1;SDS_P2;PMS_P1;PMS_P2;Temp;Humidity;BMP_temperature;BMP_pressure;BME280_temperature;BME280_humidity;BME280_pressure;Samples;Min_cycle;Max_cycle;Signal;HPM_P1;HPM_P2
2021/01/28 00:02:04;;;;;;;11.27;3.28;;;7.00;99.90;;;;;;10382530;27;20041;-54
2021/01/28 00:07:25;;;;;;;15.30;3.10;;;7.00;99.90;;;;;;10403920;27;20136;-54
2021/01/28 00:12:46;;;;;;;14.45;3.58;;;7.00;99.90;;;;;;10396903;28;20064;-55
2021/01/28 00:18:08;;;;;;;16.52;3.08;;;7.00;99.90;;;;;;10401295;27;20571;-54
2021/01/28 00:23:29;;;;;;;10.73;4.22;;;6.90;99.90;;;;;;10387120;27;20049;-55
2021/01/28 00:28:50;;;;;;;13.82;3.63;;;6.90;99.90;;;;;;10394272;27;20054;-54
2021/01/28 00:34:11;;;;;;;7.15;3.63;;;6.90;99.90;;;;;;10393266;28;20045;-54
2021/01/28 00:39:32;;;;;;;11.57;3.20;;;6.90;99.90;;;;;;10393003;28;20044;-54
2021/01/28 00:44:53;;;;;;;10.65;3.45;;;6.90;99.90;;;;;;10400138;28;20137;-54
2021/01/28 00:50:16;;;;;;;11.60;3.05;;;6.80;99.90;;;;;;10396887;28;20033;-54
2021/01/28 00:55:37;;;;;;;7.45;2.20;;;6.80;99.90;;;;;;10394737;28;20040;-54
2021/01/28 01:00:58;;;;;;;9.80;3.10;;;6.80;99.90;;;;;;10399402;28;20117;-54
2021/01/28 01:06:19;;;;;;;6.13;2.47;;;6.70;99.90;;;;;;10396295;28;20048;-54
2021/01/28 01:11:40;;;;;;;11.07;2.00;;;6.70;99.90;;;;;;10393536;27;20309;-54
2021/01/28 01:17:01;;;;;;;4.65;2.13;;;6.70;99.90;;;;;;10397930;27;20393;-54
2021/01/28 01:22:22;;;;;;;8.05;3.13;;;6.60;99.90;;;;;;10390430;27;20132;-54
2021/01/28 01:27:43;;;;;;;9.10;2.53;;;6.60;99.90;;;;;;10334490;28;20131;-54
2021/01/28 01:33:05;;;;;;;8.95;2.50;;;6.60;99.90;;;;;;10330688;28;20046;-54
2021/01/28 01:38:26;;;;;;;2.85;2.05;;;6.60;99.90;;;;;;10335332;28;20104;-54
2021/01/28 01:43:57;;;;;;;7.82;2.38;;;6.60;99.90;;;;;;10337532;28;20083;-55
2021/01/28 01:49:23;;;;;;;4.30;1.85;;;6.50;99.90;;;;;;10333681;28;20145;-55
2021/01/28 01:54:47;;;;;;;4.85;2.28;;;6.50;99.90;;;;;;10330385;28;20062;-54
2021/01/28 02:00:16;;;;;;;9.50;2.72;;;6.50;99.90;;;;;;10333343;28;20046;-54
2021/01/28 02:05:42;;;;;;;10.38;3.15;;;6.40;99.90;;;;;;10332295;28;20041;-54
2021/01/28 02:11:09;;;;;;;8.98;3.55;;;6.40;99.90;;;;;;10333816;28;20393;-54
2021/01/28 02:16:34;;;;;;;16.70;4.40;;;6.30;99.90;;;;;;10336455;28;20073;-54
2021/01/28 02:21:58;;;;;;;11.13;2.88;;;6.30;99.90;;;;;;10336363;28;20045;-54
2021/01/28 02:27:19;;;;;;;16.42;3.03;;;6.20;99.90;;;;;;10375164;28;20085;-54
2021/01/28 02:32:40;;;;;;;10.65;3.10;;;6.10;99.90;;;;;;10355325;28;20164;-54
2021/01/28 02:38:06;;;;;;;8.75;3.42;;;6.10;99.90;;;;;;10347814;28;20141;-54
2021/01/28 02:43:27;;;;;;;13.18;2.90;;;6.00;99.90;;;;;;10353626;28;20082;-54
2021/01/28 02:48:52;;;;;;;9.65;3.33;;;6.00;99.90;;;;;;10346565;28;20397;-54
2021/01/28 02:54:13;;;;;;;7.18;2.53;;;6.10;99.90;;;;;;10349309;28;20046;-54
2021/01/28 02:59:34;;;;;;;10.95;3.40;;;6.00;99.90;;;;;;10352186;28;20041;-54
2021/01/28 03:04:55;;;;;;;11.10;2.95;;;6.00;99.90;;;;;;10362540;27;20046;-55
2021/01/28 03:10:20;;;;;;;9.55;2.67;;;6.00;99.90;;;;;;10363479;28;20121;-54
2021/01/28 03:15:41;;;;;;;12.65;3.60;;;6.10;99.90;;;;;;10360254;28;20133;-54
2021/01/28 03:21:02;;;;;;;8.82;2.83;;;6.10;99.90;;;;;;10361426;28;20068;-54
2021/01/28 03:26:23;;;;;;;11.23;3.42;;;6.20;99.90;;;;;;10378886;28;20061;-55
2021/01/28 03:31:44;;;;;;;8.25;2.72;;;6.20;99.90;;;;;;10400789;27;20059;-54
2021/01/28 03:37:05;;;;;;;14.48;2.83;;;6.20;99.90;;;;;;10394027;28;20067;-54
2021/01/28 03:42:26;;;;;;;9.77;2.65;;;6.20;99.90;;;;;;10386475;28;20046;-54
2021/01/28 03:47:48;;;;;;;8.05;2.88;;;6.20;99.90;;;;;;10395906;27;20511;-54
2021/01/28 03:53:09;;;;;;;9.38;2.70;;;6.20;99.90;;;;;;10400583;28;20037;-54
2021/01/28 03:58:30;;;;;;;11.43;2.35;;;6.20;99.90;;;;;;10395778;27;20072;-54
2021/01/28 04:03:51;;;;;;;7.30;3.20;;;6.20;99.90;;;;;;10399091;27;20126;-54
2021/01/28 04:09:11;;;;;;;12.38;3.47;;;6.20;99.90;;;;;;10395298;27;20076;-54
2021/01/28 04:14:32;;;;;;;14.88;3.47;;;6.20;99.90;;;;;;10399961;27;20063;-54
2021/01/28 04:19:53;;;;;;;8.55;1.80;;;6.20;99.90;;;;;;10393876;28;20261;-54
2021/01/28 04:25:16;;;;;;;8.90;3.67;;;6.20;99.90;;;;;;10397824;27;20046;-55
2021/01/28 04:30:37;;;;;;;12.38;3.45;;;6.20;99.90;;;;;;10394369;28;20509;-54
2021/01/28 04:35:58;;;;;;;10.80;3.85;;;6.20;99.90;;;;;;10380323;27;20118;-54
2021/01/28 04:41:25;;;;;;;11.63;3.20;;;6.20;99.90;;;;;;10392832;28;20038;-54
2021/01/28 04:46:56;;;;;;;9.75;3.33;;;6.20;99.90;;;;;;10395456;27;20037;-54
2021/01/28 04:52:19;;;;;;;9.10;2.90;;;6.20;99.90;;;;;;10397346;27;20041;-54
2021/01/28 04:57:42;;;;;;;15.85;4.13;;;6.20;99.90;;;;;;10380450;27;20511;-54
2021/01/28 05:03:12;;;;;;;10.73;3.35;;;6.10;99.90;;;;;;10394617;27;20101;-54
2021/01/28 05:08:33;;;;;;;16.27;3.55;;;6.10;99.90;;;;;;10392126;28;20069;-54
2021/01/28 05:13:54;;;;;;;16.10;4.15;;;6.20;99.90;;;;;;10392496;27;20041;-54
2021/01/28 05:19:38;;;;;;;14.98;3.58;;;6.20;99.90;;;;;;10390785;27;20041;-54
2021/01/28 05:25:19;;;;;;;12.85;3.28;;;6.20;99.90;;;;;;10396468;27;20049;-55
2021/01/28 05:30:43;;;;;;;10.25;4.18;;;6.30;99.90;;;;;;10397468;27;20866;-54
2021/01/28 05:36:15;;;;;;;9.45;3.58;;;6.30;99.90;;;;;;10397488;28;20135;-54
2021/01/28 05:41:45;;;;;;;18.77;3.95;;;6.30;99.90;;;;;;10395874;27;20038;-54
2021/01/28 05:47:18;;;;;;;12.15;4.18;;;6.40;99.90;;;;;;10394373;27;20042;-54
2021/01/28 05:52:39;;;;;;;15.05;4.18;;;6.40;99.90;;;;;;10396463;27;20025;-54
2021/01/28 05:58:25;;;;;;;12.88;4.10;;;6.40;99.90;;;;;;10393414;27;20040;-54
2021/01/28 06:04:04;;;;;;;14.73;3.25;;;6.30;99.90;;;;;;10392875;27;20042;-54
2021/01/28 06:09:48;;;;;;;10.07;2.72;;;6.30;99.90;;;;;;10391648;28;20045;-54
2021/01/28 06:15:21;;;;;;;23.58;5.90;;;6.40;99.90;;;;;;10392872;27;20058;-54
2021/01/28 06:21:01;;;;;;;9.75;2.92;;;6.30;99.90;;;;;;10399295;27;20125;-55
2021/01/28 06:26:49;;;;;;;5.78;2.72;;;6.30;99.90;;;;;;10395046;28;20072;-54
2021/01/28 06:32:19;;;;;;;8.57;3.33;;;6.30;99.90;;;;;;10390841;28;20087;-54
2021/01/28 06:38:22;;;;;;;11.38;1.67;;;6.30;99.90;;;;;;10399213;28;20132;-54
2021/01/28 06:44:02;;;;;;;6.93;2.45;;;6.30;99.90;;;;;;10402378;27;20043;-55
2021/01/28 06:49:29;;;;;;;;;;;6.20;99.90;;;;;;10406277;28;20045;-54
2021/01/28 06:55:18;;;;;;;9.25;3.47;;;6.20;99.90;;;;;;10407177;28;19909;-55
2021/01/28 07:00:49;;;;;;;8.05;2.08;;;6.20;99.90;;;;;;10400189;27;20539;-54
2021/01/28 07:06:21;;;;;;;6.55;2.08;;;6.20;99.90;;;;;;10408288;28;20068;-55
2021/01/28 07:11:43;;;;;;;10.40;1.42;;;6.10;99.90;;;;;;10402633;27;20049;-55
2021/01/28 07:17:34;;;;;;;4.45;1.83;;;6.20;99.90;;;;;;10405634;27;20037;-55
2021/01/28 07:23:24;;;;;;;3.55;1.70;;;6.20;99.90;;;;;;10400607;27;20132;-55
2021/01/28 07:28:46;;;;;;;;;;;6.10;99.90;;;;;;10403515;27;20048;-55
2021/01/28 07:34:16;;;;;;;4.40;1.15;;;6.10;99.90;;;;;;10399079;27;19944;-55
2021/01/28 07:39:39;;;;;;;3.30;1.25;;;6.10;99.90;;;;;;10408760;27;20060;-55
2021/01/28 07:45:28;;;;;;;5.07;1.80;;;6.00;99.90;;;;;;10391240;27;20040;-55
2021/01/28 07:50:49;;;;;;;7.05;2.53;;;6.00;99.90;;;;;;10404060;28;20055;-56
2021/01/28 07:56:36;;;;;;;8.02;1.55;;;6.00;99.90;;;;;;10388254;28;20133;-56
2021/01/28 08:02:09;;;;;;;7.22;1.10;;;6.10;99.90;;;;;;10407000;28;20045;-55
2021/01/28 08:07:44;;;;;;;3.15;1.20;;;6.10;99.90;;;;;;10404108;28;20503;-55
2021/01/28 08:13:24;;;;;;;3.78;0.73;;;6.10;99.90;;;;;;10402766;27;20064;-55
2021/01/28 08:19:00;;;;;;;2.10;0.90;;;6.00;99.90;;;;;;10402894;28;20045;-55
2021/01/28 08:24:36;;;;;;;2.42;1.30;;;6.00;99.90;;;;;;10399483;27;20082;-55
2021/01/28 08:30:16;;;;;;;1.98;1.42;;;6.10;99.90;;;;;;10403697;28;20404;-55
2021/01/28 08:35:43;;;;;;;1.00;0.55;;;6.10;99.90;;;;;;10398664;27;20230;-54
2021/01/28 08:41:27;;;;;;;5.00;1.83;;;6.20;99.90;;;;;;10386802;27;20033;-54
2021/01/28 08:46:48;;;;;;;2.03;0.73;;;6.10;99.90;;;;;;10399331;27;20075;-54
2021/01/28 08:52:16;;;;;;;3.88;1.33;;;6.00;99.90;;;;;;10410392;28;20071;-54
2021/01/28 08:57:38;;;;;;;1.83;0.52;;;6.10;99.90;;;;;;10410464;28;20549;-54
2021/01/28 09:03:03;;;;;;;1.85;0.93;;;6.10;99.90;;;;;;10401827;27;20073;-54
2021/01/28 09:08:33;;;;;;;3.25;0.98;;;6.00;99.90;;;;;;10398238;27;20060;-54
2021/01/28 09:14:17;;;;;;;3.33;0.95;;;6.00;99.90;;;;;;10395840;27;20074;-56
2021/01/28 09:19:41;;;;;;;1.40;0.52;;;5.90;99.90;;;;;;10401177;28;20508;-54
2021/01/28 09:25:17;;;;;;;2.13;0.90;;;5.90;99.90;;;;;;10390442;28;21480;-54
2021/01/28 09:30:46;;;;;;;3.65;0.70;;;5.90;99.90;;;;;;10394780;28;20041;-54
2021/01/28 09:36:14;;;;;;;0.82;0.38;;;5.90;99.90;;;;;;10386836;28;20109;-54
2021/01/28 09:41:47;;;;;;;1.90;0.47;;;5.90;99.90;;;;;;10392630;28;20037;-54
2021/01/28 09:47:26;;;;;;;1.35;0.60;;;6.00;99.90;;;;;;10394138;27;20094;-54
2021/01/28 09:52:48;;;;;;;2.90;1.10;;;6.00;99.90;;;;;;10389018;28;20046;-53
2021/01/28 09:58:09;;;;;;;3.08;0.40;;;5.90;99.90;;;;;;10388605;27;20076;-54
2021/01/28 10:03:30;;;;;;;1.17;0.68;;;5.90;99.90;;;;;;10406983;27;20077;-54
2021/01/28 10:08:51;;;;;;;0.77;0.40;;;5.90;99.90;;;;;;10393062;27;20428;-53
2021/01/28 10:14:12;;;;;;;2.72;0.77;;;6.00;99.90;;;;;;10403207;28;20498;-54
2021/01/28 10:19:33;;;;;;;1.73;0.70;;;5.90;99.90;;;;;;10404914;27;20510;-54
2021/01/28 10:24:54;;;;;;;1.45;0.68;;;5.90;99.90;;;;;;10405657;28;20049;-54
2021/01/28 10:30:16;;;;;;;3.60;0.50;;;5.90;99.90;;;;;;10408241;28;20068;-53
2021/01/28 10:35:38;;;;;;;1.27;0.50;;;5.90;99.90;;;;;;10401774;27;20094;-54
2021/01/28 10:40:59;;;;;;;2.10;0.68;;;5.80;99.90;;;;;;10404342;28;20076;-53
2021/01/28 10:46:20;;;;;;;1.50;0.43;;;5.80;99.90;;;;;;10399158;28;20115;-54
2021/01/28 10:51:42;;;;;;;2.33;0.55;;;5.80;99.90;;;;;;10402796;27;20057;-54
2021/01/28 10:57:03;;;;;;;2.38;1.00;;;5.80;99.90;;;;;;10402843;28;20044;-54
2021/01/28 11:02:24;;;;;;;1.73;0.73;;;6.00;99.90;;;;;;10408957;27;20080;-54
2021/01/28 11:07:45;;;;;;;3.38;0.60;;;6.00;99.90;;;;;;10401665;27;20068;-54
2021/01/28 11:13:07;;;;;;;1.90;0.98;;;6.00;99.90;;;;;;10398183;27;20114;-54
2021/01/28 11:18:28;;;;;;;0.98;0.70;;;6.00;99.90;;;;;;10405067;27;20595;-54
2021/01/28 11:23:49;;;;;;;0.88;0.50;;;6.10;99.90;;;;;;10412741;27;20055;-54
2021/01/28 11:29:10;;;;;;;1.52;0.70;;;6.00;99.90;;;;;;10399889;27;20057;-55
2021/01/28 11:34:31;;;;;;;1.63;0.40;;;6.10;99.90;;;;;;10403771;27;20176;-55
2021/01/28 11:39:52;;;;;;;1.95;0.28;;;6.10;99.90;;;;;;10408524;27;20051;-54
2021/01/28 11:45:15;;;;;;;1.52;0.50;;;6.10;99.90;;;;;;10401722;27;20041;-54
2021/01/28 11:50:36;;;;;;;2.78;0.60;;;6.10;99.90;;;;;;10403248;28;20041;-54
2021/01/28 11:55:57;;;;;;;2.03;0.68;;;6.10;99.90;;;;;;10398853;27;20041;-54
2021/01/28 12:01:18;;;;;;;0.85;0.52;;;6.10;99.90;;;;;;10401618;28;20029;-55
2021/01/28 12:06:40;;;;;;;3.03;0.50;;;6.00;99.90;;;;;;10403740;27;20053;-54
2021/01/28 12:12:01;;;;;;;2.33;0.77;;;6.00;99.90;;;;;;10403597;27;20683;-54
2021/01/28 12:17:23;;;;;;;3.70;1.10;;;6.00;99.90;;;;;;10405048;27;20092;-55
2021/01/28 12:22:44;;;;;;;2.72;1.00;;;6.00;99.90;;;;;;10400213;27;20152;-55
2021/01/28 12:28:05;;;;;;;4.10;1.08;;;6.00;99.90;;;;;;10400758;27;20051;-55
2021/01/28 12:33:26;;;;;;;1.83;0.98;;;6.00;99.90;;;;;;10398463;28;20280;-55
2021/01/28 12:38:47;;;;;;;2.97;1.15;;;6.00;99.90;;;;;;10403902;28;20509;-55
2021/01/28 12:44:08;;;;;;;4.03;0.85;;;6.10;99.90;;;;;;10400567;28;20046;-55
2021/01/28 12:49:31;;;;;;;4.82;1.92;;;6.20;99.90;;;;;;10399314;28;20046;-55
2021/01/28 12:54:52;;;;;;;3.20;0.68;;;6.10;99.90;;;;;;10400864;27;20175;-55
2021/01/28 13:00:16;;;;;;;3.83;1.30;;;6.20;99.90;;;;;;10410622;27;20055;-54
2021/01/28 13:05:37;;;;;;;3.78;1.58;;;6.10;99.90;;;;;;10400864;28;20110;-54
2021/01/28 13:10:58;;;;;;;3.22;0.90;;;6.10;99.90;;;;;;10398126;28;20037;-55
2021/01/28 13:16:19;;;;;;;2.35;1.00;;;6.10;99.90;;;;;;10404074;27;20091;-54
2021/01/28 13:21:40;;;;;;;1.88;0.85;;;6.10;99.90;;;;;;10394629;28;20037;-54
2021/01/28 13:27:01;;;;;;;3.55;1.65;;;6.10;99.90;;;;;;10401157;28;20140;-55
2021/01/28 13:32:22;;;;;;;2.92;1.08;;;6.10;99.90;;;;;;10400955;28;20036;-55
2021/01/28 13:37:44;;;;;;;3.05;0.82;;;6.20;99.90;;;;;;10381709;28;20138;-55
2021/01/28 13:43:05;;;;;;;3.45;1.65;;;6.20;99.90;;;;;;10394985;27;20081;-55
2021/01/28 13:48:26;;;;;;;3.65;1.38;;;6.20;99.90;;;;;;10399165;28;20076;-55
2021/01/28 13:53:47;;;;;;;3.55;1.42;;;6.10;99.90;;;;;;10397218;27;20041;-55
2021/01/28 13:59:08;;;;;;;3.33;1.20;;;6.10;99.90;;;;;;10397314;27;20697;-55
2021/01/28 14:04:29;;;;;;;4.28;1.30;;;6.20;99.90;;;;;;10399955;28;20427;-56
2021/01/28 14:09:49;;;;;;;2.25;0.85;;;6.20;99.90;;;;;;10390986;27;20029;-55
2021/01/28 14:15:14;;;;;;;2.90;0.73;;;6.20;99.90;;;;;;10393246;28;20037;-55
2021/01/28 14:20:35;;;;;;;2.25;1.25;;;6.20;99.90;;;;;;10394532;27;20383;-55
2021/01/28 14:25:56;;;;;;;1.63;0.55;;;6.30;99.90;;;;;;10398509;27;20096;-56
2021/01/28 14:31:17;;;;;;;2.75;1.30;;;6.20;99.90;;;;;;10391155;28;20071;-56
2021/01/28 14:36:38;;;;;;;3.53;1.10;;;6.20;99.90;;;;;;10392340;27;20293;-56
2021/01/28 14:41:59;;;;;;;3.25;1.17;;;6.20;99.90;;;;;;10396969;28;20078;-56
2021/01/28 14:47:20;;;;;;;3.45;1.45;;;6.10;99.90;;;;;;10395553;28;20045;-56
2021/01/28 14:52:41;;;;;;;3.35;1.00;;;6.20;99.90;;;;;;10396716;27;20041;-55
2021/01/28 14:58:02;;;;;;;3.45;0.70;;;6.10;99.90;;;;;;10398184;27;20109;-55
2021/01/28 15:03:23;;;;;;;2.33;0.88;;;6.10;99.90;;;;;;10389107;28;20448;-55
2021/01/28 15:08:44;;;;;;;3.55;0.90;;;6.10;99.90;;;;;;10402882;28;20552;-55
2021/01/28 15:14:05;;;;;;;2.60;1.02;;;6.10;99.90;;;;;;10400809;27;20428;-55
2021/01/28 15:19:26;;;;;;;4.20;1.77;;;6.00;99.90;;;;;;10398947;27;20133;-55
2021/01/28 15:24:47;;;;;;;8.80;2.55;;;6.10;99.90;;;;;;10397066;27;20056;-56
2021/01/28 15:30:11;;;;;;;3.30;0.90;;;6.10;99.90;;;;;;10399299;27;20045;-55
2021/01/28 15:35:32;;;;;;;3.97;1.40;;;6.10;99.90;;;;;;10390029;28;20399;-56
2021/01/28 15:40:53;;;;;;;2.50;1.15;;;6.00;99.90;;;;;;10389901;27;20039;-56
2021/01/28 15:46:14;;;;;;;4.43;1.90;;;6.00;99.90;;;;;;10400956;27;20110;-55
2021/01/28 15:51:35;;;;;;;1.33;0.73;;;6.00;99.90;;;;;;10398169;28;20036;-55
2021/01/28 15:56:56;;;;;;;3.83;1.65;;;6.00;99.90;;;;;;10400039;28;20387;-55
2021/01/28 16:02:18;;;;;;;4.13;1.10;;;6.00;99.90;;;;;;10396955;27;20091;-55
2021/01/28 16:07:39;;;;;;;3.28;1.60;;;6.10;99.90;;;;;;10397869;27;20116;-56
2021/01/28 16:13:00;;;;;;;2.35;1.15;;;6.10;99.90;;;;;;10382595;28;20128;-56
2021/01/28 16:18:22;;;;;;;3.95;1.88;;;6.10;99.90;;;;;;10403599;27;20612;-55
2021/01/28 16:23:43;;;;;;;2.95;1.20;;;6.10;99.90;;;;;;10381796;28;20279;-56
2021/01/28 16:29:04;;;;;;;2.65;1.17;;;6.00;99.90;;;;;;10395517;27;20097;-56
2021/01/28 16:34:25;;;;;;;3.50;1.55;;;6.10;99.90;;;;;;10401387;27;20108;-56
2021/01/28 16:39:46;;;;;;;1.30;0.60;;;6.10;99.90;;;;;;10405113;27;20065;-55
2021/01/28 16:45:08;;;;;;;2.70;1.25;;;6.10;99.90;;;;;;10398774;28;20041;-55
2021/01/28 16:50:30;;;;;;;3.65;1.40;;;6.00;99.90;;;;;;10396893;28;20381;-55
2021/01/28 16:55:52;;;;;;;3.00;1.05;;;5.90;99.90;;;;;;10400333;27;20555;-55
2021/01/28 17:01:13;;;;;;;3.05;1.58;;;5.90;99.90;;;;;;10397801;27;20041;-58
2021/01/28 17:06:34;;;;;;;4.40;1.88;;;5.90;99.90;;;;;;10398888;27;20416;-56
2021/01/28 17:11:59;;;;;;;3.15;1.45;;;5.90;99.90;;;;;;10394861;27;20086;-55
2021/01/28 17:17:24;;;;;;;4.28;1.92;;;5.80;99.90;;;;;;10395766;28;20074;-55
2021/01/28 17:22:45;;;;;;;4.10;1.45;;;5.70;99.90;;;;;;10379839;28;20049;-56
2021/01/28 17:28:06;;;;;;;4.25;1.42;;;5.70;99.90;;;;;;10403439;27;20099;-55
2021/01/28 17:33:27;;;;;;;7.65;2.67;;;5.80;99.90;;;;;;10397676;27;20035;-55
2021/01/28 17:38:50;;;;;;;6.53;1.88;;;5.70;99.90;;;;;;10392738;28;20125;-55
2021/01/28 17:44:12;;;;;;;6.90;2.40;;;5.70;99.90;;;;;;10396045;27;20079;-55
2021/01/28 17:49:33;;;;;;;6.30;1.83;;;5.80;99.90;;;;;;10394492;27;20073;-55
2021/01/28 17:54:54;;;;;;;7.35;3.00;;;5.80;99.90;;;;;;10396475;28;20044;-55
2021/01/28 18:00:25;;;;;;;4.43;1.95;;;5.80;99.90;;;;;;10396693;27;20344;-55
2021/01/28 18:05:47;;;;;;;7.90;2.65;;;5.70;99.90;;;;;;10391522;27;20141;-55
2021/01/28 18:11:08;;;;;;;7.18;3.15;;;5.70;99.90;;;;;;10392742;27;20057;-55
2021/01/28 18:16:29;;;;;;;7.07;2.20;;;5.60;99.90;;;;;;10394397;27;20045;-55
2021/01/28 18:21:50;;;;;;;7.85;2.67;;;5.50;99.90;;;;;;10392009;27;20511;-55
2021/01/28 18:27:11;;;;;;;7.15;2.20;;;5.60;99.90;;;;;;10391524;27;20543;-55
2021/01/28 18:32:32;;;;;;;8.38;3.42;;;5.70;99.90;;;;;;10402895;27;20037;-55
2021/01/28 18:37:53;;;;;;;7.55;2.95;;;5.70;99.90;;;;;;10403717;27;20075;-55
2021/01/28 18:43:14;;;;;;;7.35;3.17;;;5.60;99.90;;;;;;10395339;27;20038;-55
2021/01/28 18:48:35;;;;;;;10.50;3.10;;;5.60;99.90;;;;;;10404673;27;20041;-55
2021/01/28 18:53:56;;;;;;;9.30;3.08;;;5.60;99.90;;;;;;10398377;27;20045;-55
2021/01/28 18:59:17;;;;;;;10.82;3.47;;;5.60;99.90;;;;;;10402399;27;20045;-55
2021/01/28 19:04:38;;;;;;;8.95;2.83;;;5.70;99.90;;;;;;10408746;27;20744;-55
2021/01/28 19:10:01;;;;;;;9.73;2.95;;;5.60;99.90;;;;;;10411415;27;20048;-55
2021/01/28 19:15:26;;;;;;;6.90;3.05;;;5.50;99.90;;;;;;10400278;27;20044;-55
2021/01/28 19:20:47;;;;;;;5.90;3.58;;;5.50;99.90;;;;;;10401062;27;20075;-55
2021/01/28 19:26:08;;;;;;;8.05;3.83;;;5.60;99.90;;;;;;10404931;27;20378;-55
2021/01/28 19:31:32;;;;;;;7.57;3.17;;;5.60;99.90;;;;;;10398855;27;20056;-55
2021/01/28 19:36:52;;;;;;;11.88;5.90;;;5.50;99.90;;;;;;10397532;27;20155;-55
2021/01/28 19:42:13;;;;;;;5.57;3.08;;;5.50;99.90;;;;;;10396606;27;20495;-55
2021/01/28 19:47:34;;;;;;;8.30;3.25;;;5.50;99.90;;;;;;10403653;27;20103;-55
2021/01/28 19:52:55;;;;;;;6.80;2.97;;;5.50;99.90;;;;;;10400225;27;20029;-55
2021/01/28 19:58:17;;;;;;;9.90;3.03;;;5.40;99.90;;;;;;10396214;27;20034;-55
2021/01/28 20:03:38;;;;;;;8.88;3.30;;;5.40;99.90;;;;;;10402607;27;20040;-55
2021/01/28 20:08:59;;;;;;;9.60;4.00;;;5.40;99.90;;;;;;10401235;27;20507;-55
2021/01/28 20:14:20;;;;;;;15.60;3.95;;;5.40;99.90;;;;;;10387323;27;20349;-55
2021/01/28 20:19:41;;;;;;;9.35;2.63;;;5.40;99.90;;;;;;10404174;27;20068;-55
2021/01/28 20:25:03;;;;;;;11.13;3.70;;;5.30;99.90;;;;;;10384065;27;20060;-55
2021/01/28 20:30:25;;;;;;;12.02;3.33;;;5.20;99.90;;;;;;10394960;27;20714;-55
2021/01/28 20:35:46;;;;;;;9.52;4.22;;;5.20;99.90;;;;;;10398034;27;20165;-55
2021/01/28 20:41:07;;;;;;;14.73;4.30;;;5.20;99.90;;;;;;10400154;27;20551;-55
2021/01/28 20:46:28;;;;;;;11.25;2.63;;;5.10;99.90;;;;;;10401219;27;20056;-55
2021/01/28 20:51:49;;;;;;;6.57;2.75;;;5.00;99.90;;;;;;10398930;27;20156;-55
2021/01/28 20:57:10;;;;;;;12.55;4.55;;;5.00;99.90;;;;;;10384526;27;20102;-55
2021/01/28 21:02:31;;;;;;;13.52;5.47;;;5.00;99.90;;;;;;10400071;27;20056;-55
2021/01/28 21:07:52;;;;;;;15.57;4.50;;;5.00;99.90;;;;;;10393046;27;20509;-55
2021/01/28 21:13:13;;;;;;;14.27;3.90;;;4.90;99.90;;;;;;10400371;27;20144;-55
2021/01/28 21:18:35;;;;;;;17.48;6.05;;;5.00;99.90;;;;;;10392677;27;20090;-55
2021/01/28 21:23:58;;;;;;;13.55;3.28;;;4.90;99.90;;;;;;10399885;27;20476;-55
2021/01/28 21:29:19;;;;;;;13.02;4.15;;;5.00;99.90;;;;;;10396224;27;20519;-54
2021/01/28 21:34:40;;;;;;;12.13;3.58;;;5.10;99.90;;;;;;10380226;27;20052;-55
2021/01/28 21:40:02;;;;;;;8.18;3.03;;;5.10;99.90;;;;;;10397577;27;20043;-55
2021/01/28 21:45:27;;;;;;;11.30;2.97;;;5.00;99.90;;;;;;10401954;27;20056;-54
2021/01/28 21:50:52;;;;;;;10.63;4.43;;;5.00;99.90;;;;;;10399669;27;20097;-55
2021/01/28 21:56:13;;;;;;;11.55;5.40;;;4.90;99.90;;;;;;10397999;27;20045;-55
2021/01/28 22:01:34;;;;;;;9.07;3.60;;;5.00;99.90;;;;;;10394424;27;20085;-55
2021/01/28 22:06:56;;;;;;;5.13;2.75;;;4.90;99.90;;;;;;10401197;27;20471;-55
2021/01/28 22:12:20;;;;;;;8.85;3.13;;;4.90;99.90;;;;;;10431209;27;20037;-54
2021/01/28 22:17:42;;;;;;;8.35;3.22;;;4.90;99.90;;;;;;10403437;27;20030;-55
2021/01/28 22:23:04;;;;;;;24.95;4.47;;;4.90;99.90;;;;;;10401949;27;20569;-55
2021/01/28 22:28:25;;;;;;;5.97;2.30;;;4.90;99.90;;;;;;10401326;27;20081;-55
2021/01/28 22:33:46;;;;;;;9.23;3.97;;;5.00;99.90;;;;;;10402591;27;20025;-55
2021/01/28 22:39:08;;;;;;;10.45;2.47;;;5.00;99.90;;;;;;10404286;27;20492;-55
2021/01/28 22:44:28;;;;;;;7.60;2.90;;;5.10;99.90;;;;;;10387861;28;20053;-55
2021/01/28 22:49:49;;;;;;;8.32;3.72;;;5.10;99.90;;;;;;10395844;28;20537;-55
2021/01/28 22:55:20;;;;;;;9.05;3.10;;;5.10;99.90;;;;;;10398452;27;20041;-55
2021/01/28 23:00:47;;;;;;;9.88;3.25;;;5.10;99.90;;;;;;10398057;27;20040;-55
2021/01/28 23:06:10;;;;;;;10.50;3.53;;;5.20;99.90;;;;;;10398771;27;20132;-55
2021/01/28 23:11:31;;;;;;;10.25;4.35;;;5.20;99.90;;;;;;10394251;28;20038;-55
2021/01/28 23:16:52;;;;;;;10.30;4.60;;;5.20;99.90;;;;;;10398809;27;20080;-55
2021/01/28 23:22:13;;;;;;;18.05;3.47;;;5.30;99.90;;;;;;10404383;27;20046;-55
2021/01/28 23:27:34;;;;;;;9.88;4.15;;;5.30;99.90;;;;;;10399245;27;20144;-55
2021/01/28 23:32:56;;;;;;;9.60;3.25;;;5.30;99.90;;;;;;10397516;27;20500;-55
2021/01/28 23:38:17;;;;;;;8.77;2.70;;;5.40;99.90;;;;;;10395787;27;20426;-55
2021/01/28 23:43:38;;;;;;;11.45;4.13;;;5.40;99.90;;;;;;10393525;27;20036;-55
2021/01/28 23:48:59;;;;;;;14.65;5.18;;;5.40;99.90;;;;;;10396884;28;20037;-55
2021/01/28 23:54:20;;;;;;;12.13;4.82;;;5.50;99.90;;;;;;10393684;27;20059;-55
2021/01/28 23:59:41;;;;;;;8.23;3.15;;;5.50;99.90;;;;;;10394723;27;20598;-55
